Weather at Hangar Haciendas Airpark

Public forecast

Using degrees Fahrenheit for public forecast. Weather courtesy of forecast.io.

Closest aviation weather report (METAR) to Hangar Haciendas Airpark

Closest report is Phoenix Sky Harbor International Airport, 7.8 nm (14.4 km) NE. Retrieved 2021/08/06 03:51 UTC (10 minutes ago):

KPHX 060351Z 00000KT 10SM CLR 39/15 A2978 RMK AO2 SLP060 T03940150

Closest aviation forecast (TAF) to Hangar Haciendas Airpark

Closest forecast is Phoenix Sky Harbor International Airport, 7.8 nm (14.4 km) NE. Retrieved 2021-08-06 00:22 UTC (4 hours ago):

TAF KPHX 052320Z 0600/0706 26007KT P6SM SKC FM060500 23011KT P6SM SCT250 FM061200 11007KT P6SM FEW250 FM061900 26008KT P6SM FEW120